Time;durP1;ratioP1;P1;durP2;ratioP2;P2;SDS_P1;SDS_P2;PMS_P1;PMS_P2;Temp;Humidity;BMP_temperature;BMP_pressure;BME280_temperature;BME280_humidity;BME280_pressure;Samples;Min_cycle;Max_cycle;Signal;HPM_P1;HPM_P2
2023/12/10 00:01:03;;;;;;;19.45;3.58;;;;;;;;;;7365559;19;20007;-75
2023/12/10 00:03:28;;;;;;;25.63;3.80;;;;;;;;;;7387296;19;20075;-74
2023/12/10 00:05:53;;;;;;;19.80;3.42;;;;;;;;;;7365332;19;20020;-75
2023/12/10 00:08:19;;;;;;;23.77;3.60;;;;;;;;;;7365849;19;19999;-75
2023/12/10 00:10:45;;;;;;;24.30;5.35;;;;;;;;;;7364488;19;20042;-75
2023/12/10 00:13:10;;;;;;;24.83;4.50;;;;;;;;;;7365672;19;20010;-75
2023/12/10 00:15:37;;;;;;;31.55;4.10;;;;;;;;;;7387937;19;20005;-75
2023/12/10 00:18:03;;;;;;;22.02;3.83;;;;;;;;;;7364691;19;20032;-75
2023/12/10 00:20:29;;;;;;;25.65;4.30;;;;;;;;;;7365206;19;20003;-75
2023/12/10 00:22:54;;;;;;;26.27;4.97;;;;;;;;;;7364491;19;19998;-75
2023/12/10 00:25:20;;;;;;;23.35;4.32;;;;;;;;;;7365262;19;20754;-75
2023/12/10 00:27:45;;;;;;;31.30;4.03;;;;;;;;;;7381995;19;20025;-75
2023/12/10 00:30:11;;;;;;;27.13;4.35;;;;;;;;;;7374917;19;20002;-75
2023/12/10 00:32:36;;;;;;;26.98;3.80;;;;;;;;;;7363844;19;20058;-75
2023/12/10 00:35:02;;;;;;;18.92;3.40;;;;;;;;;;7364099;19;20360;-75
2023/12/10 00:37:28;;;;;;;20.33;4.00;;;;;;;;;;7367670;19;20034;-75
2023/12/10 00:39:53;;;;;;;24.17;4.20;;;;;;;;;;7372717;19;19999;-75
2023/12/10 00:42:18;;;;;;;17.75;3.17;;;;;;;;;;7393138;19;20471;-75
2023/12/10 00:44:44;;;;;;;30.70;4.53;;;;;;;;;;7366596;19;20037;-75
2023/12/10 00:47:10;;;;;;;29.95;5.20;;;;;;;;;;7364908;19;20003;-75
2023/12/10 00:49:35;;;;;;;29.48;4.40;;;;;;;;;;7365806;19;20019;-75
2023/12/10 00:52:00;;;;;;;33.42;4.60;;;;;;;;;;7364316;19;20077;-75
2023/12/10 00:54:26;;;;;;;28.05;5.05;;;;;;;;;;7385348;19;20010;-75
2023/12/10 00:56:51;;;;;;;24.25;4.72;;;;;;;;;;7363689;19;20015;-75
2023/12/10 00:59:17;;;;;;;31.70;5.32;;;;;;;;;;7365289;19;20069;-75
2023/12/10 01:01:42;;;;;;;24.25;4.05;;;;;;;;;;7364550;19;20010;-75
2023/12/10 01:04:08;;;;;;;33.42;5.28;;;;;;;;;;7363450;19;20082;-75
2023/12/10 01:06:33;;;;;;;28.65;5.70;;;;;;;;;;7379559;19;20062;-75
2023/12/10 01:08:58;;;;;;;24.67;4.32;;;;;;;;;;7363948;19;20557;-75
2023/12/10 01:11:24;;;;;;;30.55;5.45;;;;;;;;;;7364499;19;20789;-75
2023/12/10 01:13:49;;;;;;;36.35;5.20;;;;;;;;;;7364149;19;20516;-75
2023/12/10 01:16:16;;;;;;;29.90;4.30;;;;;;;;;;7362863;19;20018;-75
2023/12/10 01:18:43;;;;;;;27.40;4.68;;;;;;;;;;7386261;19;20099;-75
2023/12/10 01:21:09;;;;;;;29.15;4.80;;;;;;;;;;7362244;19;20492;-75
2023/12/10 01:23:35;;;;;;;33.03;5.05;;;;;;;;;;7362694;19;20011;-74
2023/12/10 01:26:00;;;;;;;24.92;3.97;;;;;;;;;;7365808;19;20409;-75
2023/12/10 01:28:26;;;;;;;26.98;5.65;;;;;;;;;;7367906;19;20014;-75
2023/12/10 01:30:51;;;;;;;25.40;4.90;;;;;;;;;;7372757;19;20574;-75
2023/12/10 01:33:17;;;;;;;21.60;4.15;;;;;;;;;;7391153;19;20122;-75
2023/12/10 01:35:42;;;;;;;29.08;4.57;;;;;;;;;;7369435;19;20006;-75
2023/12/10 01:38:08;;;;;;;27.27;4.95;;;;;;;;;;7371107;19;20010;-75
2023/12/10 01:40:33;;;;;;;29.90;4.20;;;;;;;;;;7371093;19;20653;-75
2023/12/10 01:43:05;;;;;;;30.88;4.75;;;;;;;;;;7369984;19;20009;-75
2023/12/10 01:45:30;;;;;;;32.08;4.85;;;;;;;;;;7392739;19;20035;-74
2023/12/10 01:47:56;;;;;;;24.88;4.80;;;;;;;;;;7369321;19;20479;-75
2023/12/10 01:50:22;;;;;;;33.45;4.30;;;;;;;;;;7370258;19;20010;-74
2023/12/10 01:52:48;;;;;;;26.10;4.70;;;;;;;;;;7369454;19;20010;-75
2023/12/10 01:55:14;;;;;;;29.50;4.88;;;;;;;;;;7370624;19;20118;-74
2023/12/10 01:57:40;;;;;;;30.90;4.75;;;;;;;;;;7392015;19;20038;-75
2023/12/10 02:00:07;;;;;;;26.63;4.30;;;;;;;;;;7369103;19;20011;-74
2023/12/10 02:02:35;;;;;;;28.98;4.68;;;;;;;;;;7369301;19;20129;-74
2023/12/10 02:05:05;;;;;;;24.25;4.55;;;;;;;;;;7370415;19;20014;-74
2023/12/10 02:07:30;;;;;;;30.17;4.72;;;;;;;;;;7368925;19;20031;-75
2023/12/10 02:09:55;;;;;;;29.55;5.80;;;;;;;;;;7371590;19;20003;-75
2023/12/10 02:12:21;;;;;;;29.85;5.30;;;;;;;;;;7394057;19;20083;-75
2023/12/10 02:14:47;;;;;;;31.73;4.60;;;;;;;;;;7371893;19;20014;-75
2023/12/10 02:17:12;;;;;;;28.73;4.43;;;;;;;;;;7370504;19;20010;-76
2023/12/10 02:19:37;;;;;;;27.48;4.03;;;;;;;;;;7370074;19;20010;-74
2023/12/10 02:22:04;;;;;;;28.45;4.78;;;;;;;;;;7370375;19;20014;-75
2023/12/10 02:24:46;;;;;;;28.25;4.80;;;;;;;;;;7390241;19;20044;-75
2023/12/10 02:27:11;;;;;;;29.77;5.15;;;;;;;;;;7369244;19;20010;-75
2023/12/10 02:29:37;;;;;;;27.60;4.70;;;;;;;;;;7369321;19;20040;-75
2023/12/10 02:32:03;;;;;;;25.30;4.45;;;;;;;;;;7369480;19;20019;-74
2023/12/10 02:34:28;;;;;;;26.30;4.35;;;;;;;;;;7366760;19;20375;-75
2023/12/10 02:36:53;;;;;;;23.70;4.07;;;;;;;;;;7368612;19;20006;-75
2023/12/10 02:39:19;;;;;;;24.98;4.25;;;;;;;;;;7390091;19;20002;-75
2023/12/10 02:41:45;;;;;;;27.55;5.70;;;;;;;;;;7368750;19;20002;-75
2023/12/10 02:44:10;;;;;;;24.17;3.40;;;;;;;;;;7368335;19;20090;-75
2023/12/10 02:46:35;;;;;;;19.88;3.90;;;;;;;;;;7369803;19;20082;-75
2023/12/10 02:49:01;;;;;;;29.00;3.97;;;;;;;;;;7368939;19;20017;-75
2023/12/10 02:51:26;;;;;;;17.85;3.28;;;;;;;;;;7391851;19;20103;-75
2023/12/10 02:53:51;;;;;;;27.13;4.65;;;;;;;;;;7372152;19;20029;-75
2023/12/10 02:56:17;;;;;;;19.80;3.88;;;;;;;;;;7376038;19;20010;-76
2023/12/10 02:58:42;;;;;;;28.35;4.55;;;;;;;;;;7376418;19;20026;-75
2023/12/10 03:01:07;;;;;;;27.25;5.03;;;;;;;;;;7371466;19;20007;-75
2023/12/10 03:03:33;;;;;;;24.45;4.05;;;;;;;;;;7385357;19;20468;-75
2023/12/10 03:05:58;;;;;;;21.52;4.63;;;;;;;;;;7369163;19;20691;-75
2023/12/10 03:08:23;;;;;;;26.50;4.72;;;;;;;;;;7369498;19;20011;-75
2023/12/10 03:10:49;;;;;;;20.33;3.53;;;;;;;;;;7368130;19;20559;-76
2023/12/10 03:13:14;;;;;;;23.35;3.63;;;;;;;;;;7367227;19;20389;-75
2023/12/10 03:15:39;;;;;;;30.02;5.75;;;;;;;;;;7389579;19;20321;-75
2023/12/10 03:18:05;;;;;;;24.48;3.70;;;;;;;;;;7367317;19;20050;-75
2023/12/10 03:20:31;;;;;;;19.70;4.47;;;;;;;;;;7367110;19;20014;-75
2023/12/10 03:22:56;;;;;;;19.30;4.20;;;;;;;;;;7368136;19;20062;-75
2023/12/10 03:25:22;;;;;;;18.08;3.10;;;;;;;;;;7370591;19;20464;-76
2023/12/10 03:27:47;;;;;;;19.40;3.42;;;;;;;;;;7370542;19;20005;-75
2023/12/10 03:30:12;;;;;;;20.50;3.90;;;;;;;;;;7391773;19;20006;-75
2023/12/10 03:32:38;;;;;;;17.17;3.05;;;;;;;;;;7366502;19;20007;-75
2023/12/10 03:35:03;;;;;;;13.80;2.65;;;;;;;;;;7368519;19;20010;-76
2023/12/10 03:37:29;;;;;;;15.95;2.90;;;;;;;;;;7373196;19;20029;-76
2023/12/10 03:39:54;;;;;;;15.13;3.13;;;;;;;;;;7369022;19;20453;-76
2023/12/10 03:42:20;;;;;;;14.88;3.20;;;;;;;;;;7396340;19;20334;-76
2023/12/10 03:44:46;;;;;;;18.23;3.35;;;;;;;;;;7376524;19;20054;-76
2023/12/10 03:47:11;;;;;;;20.38;3.47;;;;;;;;;;7374387;19;20070;-75
2023/12/10 03:49:36;;;;;;;17.73;3.08;;;;;;;;;;7370289;19;20097;-75
2023/12/10 03:52:02;;;;;;;19.20;2.72;;;;;;;;;;7365253;19;20066;-75
2023/12/10 03:54:27;;;;;;;17.83;3.45;;;;;;;;;;7388565;19;20460;-76
2023/12/10 03:56:53;;;;;;;14.85;2.80;;;;;;;;;;7366776;19;20013;-76
2023/12/10 03:59:18;;;;;;;19.00;3.08;;;;;;;;;;7365552;19;20006;-75
2023/12/10 04:01:43;;;;;;;14.50;2.83;;;;;;;;;;7365898;19;20066;-76
2023/12/10 04:04:10;;;;;;;16.58;2.90;;;;;;;;;;7363998;19;20329;-76
2023/12/10 04:06:42;;;;;;;18.95;3.45;;;;;;;;;;7388278;19;19995;-76
2023/12/10 04:09:08;;;;;;;18.17;2.78;;;;;;;;;;7365769;19;20030;-76
2023/12/10 04:11:34;;;;;;;11.43;2.70;;;;;;;;;;7366274;19;20026;-76
2023/12/10 04:13:59;;;;;;;18.83;3.33;;;;;;;;;;7366534;19;20010;-75
2023/12/10 04:16:26;;;;;;;18.27;2.72;;;;;;;;;;7363895;19;20021;-75
2023/12/10 04:18:51;;;;;;;16.00;3.10;;;;;;;;;;7369344;19;20007;-75
2023/12/10 04:21:21;;;;;;;16.23;2.90;;;;;;;;;;7392467;19;20476;-75
2023/12/10 04:23:46;;;;;;;24.13;3.63;;;;;;;;;;7369245;19;20002;-75
2023/12/10 04:26:12;;;;;;;18.30;3.08;;;;;;;;;;7365391;19;20062;-75
2023/12/10 04:28:41;;;;;;;23.90;3.28;;;;;;;;;;7365786;19;20019;-75
2023/12/10 04:31:06;;;;;;;20.15;3.42;;;;;;;;;;7366331;19;20099;-75
2023/12/10 04:33:32;;;;;;;18.17;3.58;;;;;;;;;;7385351;19;20070;-76
2023/12/10 04:35:57;;;;;;;19.52;3.20;;;;;;;;;;7364439;19;20010;-76
2023/12/10 04:38:22;;;;;;;20.15;3.42;;;;;;;;;;7364945;19;20006;-76
2023/12/10 04:40:48;;;;;;;23.38;3.40;;;;;;;;;;7365783;19;20010;-76
2023/12/10 04:43:13;;;;;;;18.02;3.30;;;;;;;;;;7366290;19;20090;-76
2023/12/10 04:49:00;;;;;;;15.55;2.78;;;;;;;;;;7263314;19;2004342;-76
2023/12/10 04:51:26;;;;;;;18.98;3.33;;;;;;;;;;7389533;19;19999;-76
2023/12/10 04:53:51;;;;;;;18.05;3.25;;;;;;;;;;7361240;19;20050;-76
2023/12/10 04:56:17;;;;;;;18.88;3.10;;;;;;;;;;7364625;19;20015;-76
2023/12/10 04:58:42;;;;;;;20.95;3.42;;;;;;;;;;7366148;19;20010;-77
2023/12/10 05:01:08;;;;;;;17.70;3.35;;;;;;;;;;7363920;19;20015;-76
2023/12/10 05:03:33;;;;;;;20.20;3.72;;;;;;;;;;7387919;19;20013;-76
2023/12/10 05:05:58;;;;;;;23.73;3.40;;;;;;;;;;7371691;19;20007;-76
2023/12/10 05:08:24;;;;;;;19.23;3.50;;;;;;;;;;7372259;19;20434;-76
2023/12/10 05:10:49;;;;;;;19.83;3.17;;;;;;;;;;7372344;19;20354;-76
2023/12/10 05:13:14;;;;;;;20.30;3.35;;;;;;;;;;7372254;19;20516;-76
2023/12/10 05:15:40;;;;;;;21.83;3.38;;;;;;;;;;7392105;19;20033;-76
2023/12/10 05:18:05;;;;;;;21.45;3.20;;;;;;;;;;7372014;19;20357;-78
2023/12/10 05:20:31;;;;;;;24.48;3.67;;;;;;;;;;7369850;19;20532;-76
2023/12/10 05:22:59;;;;;;;19.73;3.42;;;;;;;;;;7370219;19;20045;-76
2023/12/10 05:25:27;;;;;;;25.48;3.75;;;;;;;;;;7370231;19;19998;-76
2023/12/10 05:27:53;;;;;;;21.40;3.80;;;;;;;;;;7371763;19;20021;-76
2023/12/10 05:30:18;;;;;;;23.25;4.10;;;;;;;;;;7393069;19;20002;-76
2023/12/10 05:32:43;;;;;;;23.40;3.53;;;;;;;;;;7369357;19;20074;-76
2023/12/10 05:35:09;;;;;;;24.25;5.05;;;;;;;;;;7371106;19;20022;-76
2023/12/10 05:37:34;;;;;;;22.02;3.80;;;;;;;;;;7370442;19;20014;-76
2023/12/10 05:39:59;;;;;;;27.42;3.40;;;;;;;;;;7370786;19;20019;-76
2023/12/10 05:42:25;;;;;;;23.42;3.85;;;;;;;;;;7393114;19;20002;-76
2023/12/10 05:44:50;;;;;;;20.88;3.50;;;;;;;;;;7370396;19;19995;-76
2023/12/10 05:47:16;;;;;;;22.33;4.25;;;;;;;;;;7368728;19;20017;-76
2023/12/10 05:49:41;;;;;;;20.50;3.30;;;;;;;;;;7371526;19;20021;-76
2023/12/10 05:52:10;;;;;;;17.35;3.58;;;;;;;;;;7371294;19;20813;-76
2023/12/10 05:54:35;;;;;;;28.33;3.72;;;;;;;;;;7394836;19;20013;-76
2023/12/10 05:57:00;;;;;;;22.13;3.67;;;;;;;;;;7372723;19;20819;-76
2023/12/10 05:59:26;;;;;;;19.25;3.55;;;;;;;;;;7373491;19;20535;-76
2023/12/10 06:01:51;;;;;;;25.45;3.42;;;;;;;;;;7371916;19;20372;-76
2023/12/10 06:04:16;;;;;;;23.52;4.00;;;;;;;;;;7375146;19;20102;-76
2023/12/10 06:06:42;;;;;;;21.83;3.83;;;;;;;;;;7399911;19;20058;-76
2023/12/10 06:09:09;;;;;;;23.25;3.60;;;;;;;;;;7376785;19;19998;-76
2023/12/10 06:11:34;;;;;;;27.63;3.67;;;;;;;;;;7377687;19;20063;-76
2023/12/10 06:14:00;;;;;;;27.20;4.45;;;;;;;;;;7376421;19;20007;-76
2023/12/10 06:16:25;;;;;;;27.30;4.40;;;;;;;;;;7376570;19;19998;-76
2023/12/10 06:18:50;;;;;;;22.20;3.40;;;;;;;;;;7378801;19;20006;-76
2023/12/10 06:21:15;;;;;;;21.23;3.70;;;;;;;;;;7393350;19;19995;-76
2023/12/10 06:23:41;;;;;;;23.67;3.83;;;;;;;;;;7370312;19;20445;-76
2023/12/10 06:26:06;;;;;;;26.35;4.32;;;;;;;;;;7387909;19;20006;-76
2023/12/10 06:28:31;;;;;;;22.40;4.13;;;;;;;;;;7391207;19;20013;-76
2023/12/10 06:30:58;;;;;;;16.75;3.65;;;;;;;;;;7389029;19;20073;-76
2023/12/10 06:33:23;;;;;;;21.00;3.63;;;;;;;;;;7409133;19;19998;-76
2023/12/10 06:35:48;;;;;;;22.55;3.85;;;;;;;;;;7385745;19;20034;-76
2023/12/10 06:38:14;;;;;;;21.20;4.80;;;;;;;;;;7385288;19;20002;-76
2023/12/10 06:40:39;;;;;;;25.45;3.35;;;;;;;;;;7387341;19;20503;-76
2023/12/10 06:43:04;;;;;;;20.80;3.22;;;;;;;;;;7378491;19;20007;-76
2023/12/10 06:45:30;;;;;;;18.38;3.58;;;;;;;;;;7394121;19;20026;-76
2023/12/10 06:47:55;;;;;;;20.55;3.60;;;;;;;;;;7369776;19;20050;-76
2023/12/10 06:50:21;;;;;;;19.58;3.17;;;;;;;;;;7370757;19;20010;-76
2023/12/10 06:52:46;;;;;;;23.08;3.85;;;;;;;;;;7368425;19;20021;-76
2023/12/10 06:55:11;;;;;;;16.65;3.03;;;;;;;;;;7369568;19;20019;-76
2023/12/10 06:57:37;;;;;;;27.33;4.25;;;;;;;;;;7391248;19;20318;-76
2023/12/10 07:00:05;;;;;;;21.50;3.72;;;;;;;;;;7369045;19;20078;-75
2023/12/10 07:02:31;;;;;;;30.20;3.90;;;;;;;;;;7370101;19;20011;-75
2023/12/10 07:04:56;;;;;;;26.63;3.50;;;;;;;;;;7369275;19;20019;-75
2023/12/10 07:07:22;;;;;;;27.30;3.53;;;;;;;;;;7367697;19;20018;-75
2023/12/10 07:09:47;;;;;;;24.77;4.13;;;;;;;;;;7370352;19;20006;-76
2023/12/10 07:12:13;;;;;;;24.83;4.57;;;;;;;;;;7393269;19;20013;-75
2023/12/10 07:14:38;;;;;;;24.13;4.25;;;;;;;;;;7370408;19;20140;-75
2023/12/10 07:17:03;;;;;;;21.52;3.70;;;;;;;;;;7368241;19;20080;-76
2023/12/10 07:19:29;;;;;;;23.17;3.53;;;;;;;;;;7368327;19;20010;-75
2023/12/10 07:21:55;;;;;;;24.30;3.90;;;;;;;;;;7368362;19;20030;-75
2023/12/10 07:24:21;;;;;;;13.85;4.20;;;;;;;;;;7388145;19;20010;-75
2023/12/10 07:26:47;;;;;;;25.42;3.47;;;;;;;;;;7364446;19;20002;-76
2023/12/10 07:29:13;;;;;;;20.25;3.55;;;;;;;;;;7368339;19;20014;-76
2023/12/10 07:31:38;;;;;;;18.73;4.32;;;;;;;;;;7370070;19;20436;-76
2023/12/10 07:34:04;;;;;;;22.92;3.63;;;;;;;;;;7367459;19;20013;-75
2023/12/10 07:36:29;;;;;;;21.50;3.72;;;;;;;;;;7391977;19;20002;-74
2023/12/10 07:38:55;;;;;;;17.95;3.75;;;;;;;;;;7371560;19;20003;-74
2023/12/10 07:41:21;;;;;;;19.23;4.15;;;;;;;;;;7368865;19;20006;-75
2023/12/10 07:43:47;;;;;;;19.05;3.13;;;;;;;;;;7368200;19;20006;-74
2023/12/10 07:46:12;;;;;;;20.80;3.45;;;;;;;;;;7366495;19;20005;-75
2023/12/10 07:48:38;;;;;;;29.63;4.43;;;;;;;;;;7389976;19;20006;-75
2023/12/10 07:51:03;;;;;;;17.80;3.55;;;;;;;;;;7367340;19;20006;-74
2023/12/10 07:53:29;;;;;;;20.02;3.05;;;;;;;;;;7366294;19;20559;-74
2023/12/10 07:55:54;;;;;;;20.65;3.00;;;;;;;;;;7371877;19;20009;-75
2023/12/10 07:58:22;;;;;;;21.83;3.85;;;;;;;;;;7373792;19;20133;-75
2023/12/10 08:00:47;;;;;;;22.60;3.83;;;;;;;;;;7369076;19;20026;-73
2023/12/10 08:03:13;;;;;;;16.27;3.50;;;;;;;;;;7388175;19;20077;-76
2023/12/10 08:05:39;;;;;;;17.42;4.22;;;;;;;;;;7366022;19;20002;-74
2023/12/10 08:08:04;;;;;;;16.40;3.47;;;;;;;;;;7366891;19;20011;-75
2023/12/10 08:10:31;;;;;;;21.02;3.65;;;;;;;;;;7367597;19;20124;-75
2023/12/10 08:12:56;;;;;;;19.40;3.13;;;;;;;;;;7365708;19;20002;-74
2023/12/10 08:15:22;;;;;;;26.75;3.92;;;;;;;;;;7388284;19;20003;-75
2023/12/10 08:17:47;;;;;;;23.38;3.80;;;;;;;;;;7366480;19;20018;-74
2023/12/10 08:20:12;;;;;;;19.65;3.30;;;;;;;;;;7367894;19;20002;-74
2023/12/10 08:22:38;;;;;;;17.35;3.05;;;;;;;;;;7367742;19;20011;-75
2023/12/10 08:25:04;;;;;;;24.15;3.72;;;;;;;;;;7371661;19;19998;-74
2023/12/10 08:27:30;;;;;;;19.98;3.53;;;;;;;;;;7392694;19;20007;-76
2023/12/10 08:29:58;;;;;;;19.77;3.58;;;;;;;;;;7371753;19;20007;-76
2023/12/10 08:32:23;;;;;;;18.65;4.20;;;;;;;;;;7367297;19;20006;-74
2023/12/10 08:34:49;;;;;;;22.27;3.83;;;;;;;;;;7365478;19;20002;-75
2023/12/10 08:37:14;;;;;;;20.13;3.45;;;;;;;;;;7364939;19;20018;-74
2023/12/10 08:39:42;;;;;;;19.85;3.92;;;;;;;;;;7387188;19;20002;-73
2023/12/10 08:42:07;;;;;;;21.08;3.38;;;;;;;;;;7364956;19;20034;-74
2023/12/10 08:44:32;;;;;;;17.42;3.67;;;;;;;;;;7366014;19;20014;-74
2023/12/10 08:46:58;;;;;;;23.38;3.38;;;;;;;;;;7365563;19;20023;-74
2023/12/10 08:49:23;;;;;;;18.38;3.47;;;;;;;;;;7366237;19;20010;-74
2023/12/10 08:51:48;;;;;;;16.83;3.58;;;;;;;;;;7366072;19;20024;-73
2023/12/10 08:54:14;;;;;;;17.50;3.60;;;;;;;;;;7386319;19;20003;-75
2023/12/10 08:56:39;;;;;;;17.88;3.25;;;;;;;;;;7364443;19;20010;-75
2023/12/10 08:59:05;;;;;;;23.35;3.60;;;;;;;;;;7365309;19;20022;-75
2023/12/10 09:01:30;;;;;;;19.10;4.00;;;;;;;;;;7365263;19;20830;-74
2023/12/10 09:03:55;;;;;;;17.42;3.78;;;;;;;;;;7364044;19;20006;-73
2023/12/10 09:06:21;;;;;;;16.70;3.13;;;;;;;;;;7385923;19;20007;-74
2023/12/10 09:08:46;;;;;;;13.43;2.97;;;;;;;;;;7364193;19;20006;-74
2023/12/10 09:11:12;;;;;;;13.98;2.85;;;;;;;;;;7365250;19;20530;-73
2023/12/10 09:13:37;;;;;;;17.00;2.83;;;;;;;;;;7364261;19;20472;-75
2023/12/10 09:16:06;;;;;;;15.02;3.22;;;;;;;;;;7365087;19;20001;-74
2023/12/10 09:18:31;;;;;;;22.58;3.60;;;;;;;;;;7391533;19;20007;-75
2023/12/10 09:20:56;;;;;;;16.60;3.17;;;;;;;;;;7368893;19;20026;-74
2023/12/10 09:23:22;;;;;;;16.10;3.28;;;;;;;;;;7366275;19;20021;-75
2023/12/10 09:25:48;;;;;;;11.32;2.80;;;;;;;;;;7365089;19;20010;-74
2023/12/10 09:28:13;;;;;;;15.23;2.95;;;;;;;;;;7364999;19;20021;-74
2023/12/10 09:30:38;;;;;;;15.27;3.38;;;;;;;;;;7387445;19;20006;-75
2023/12/10 09:33:05;;;;;;;14.98;3.30;;;;;;;;;;7363000;19;20018;-75
2023/12/10 09:35:30;;;;;;;13.77;2.78;;;;;;;;;;7362568;19;20041;-74
2023/12/10 09:37:56;;;;;;;14.88;3.17;;;;;;;;;;7364395;19;20385;-74
2023/12/10 09:40:21;;;;;;;19.83;3.03;;;;;;;;;;7364155;19;20047;-74
2023/12/10 09:42:47;;;;;;;12.60;2.75;;;;;;;;;;7368361;19;20007;-73
2023/12/10 09:45:12;;;;;;;14.55;3.00;;;;;;;;;;7385385;19;20005;-74
2023/12/10 09:47:40;;;;;;;16.25;2.60;;;;;;;;;;7362379;19;20079;-74
2023/12/10 09:50:06;;;;;;;15.05;3.17;;;;;;;;;;7365442;19;20015;-73
2023/12/10 09:52:31;;;;;;;32.08;11.95;;;;;;;;;;7370088;19;20696;-73
2023/12/10 09:54:57;;;;;;;16.85;3.60;;;;;;;;;;7370622;19;20098;-73
2023/12/10 09:57:22;;;;;;;15.65;3.55;;;;;;;;;;7391845;19;20342;-73
2023/12/10 09:59:48;;;;;;;11.30;3.08;;;;;;;;;;7370546;19;20010;-73
2023/12/10 10:02:15;;;;;;;13.77;2.95;;;;;;;;;;7370543;19;20043;-74
2023/12/10 10:04:41;;;;;;;13.70;3.55;;;;;;;;;;7370933;19;20025;-74
2023/12/10 10:07:07;;;;;;;10.45;2.65;;;;;;;;;;7370080;19;20436;-74
2023/12/10 10:09:37;;;;;;;12.82;2.95;;;;;;;;;;7393165;19;20002;-73
2023/12/10 10:12:03;;;;;;;18.63;3.30;;;;;;;;;;7369376;19;20575;-73
2023/12/10 10:14:28;;;;;;;16.52;3.92;;;;;;;;;;7369062;19;20097;-73
2023/12/10 10:16:54;;;;;;;12.45;3.47;;;;;;;;;;7370020;19;20095;-73
2023/12/10 10:19:19;;;;;;;14.55;3.30;;;;;;;;;;7370165;19;20499;-73
2023/12/10 10:21:45;;;;;;;20.88;3.67;;;;;;;;;;7390441;19;20014;-73
2023/12/10 10:24:11;;;;;;;14.70;3.97;;;;;;;;;;7368786;19;20083;-73
2023/12/10 10:26:37;;;;;;;14.90;3.25;;;;;;;;;;7370219;19;20010;-72
2023/12/10 10:29:07;;;;;;;32.38;15.07;;;;;;;;;;7373090;19;20051;-73
2023/12/10 10:31:33;;;;;;;17.33;3.85;;;;;;;;;;7370386;19;20017;-72
2023/12/10 10:34:05;;;;;;;10.30;2.97;;;;;;;;;;7367934;19;20077;-75
2023/12/10 10:36:31;;;;;;;16.77;2.95;;;;;;;;;;7390388;19;20027;-74
2023/12/10 10:38:57;;;;;;;12.85;2.92;;;;;;;;;;7368104;19;20010;-74
2023/12/10 10:41:22;;;;;;;15.20;3.10;;;;;;;;;;7369463;19;20006;-73
2023/12/10 10:43:48;;;;;;;13.50;3.33;;;;;;;;;;7369114;19;20014;-73
2023/12/10 10:46:19;;;;;;;16.63;3.67;;;;;;;;;;7368349;19;20027;-72
2023/12/10 10:48:44;;;;;;;15.02;3.38;;;;;;;;;;7391616;19;20524;-72
2023/12/10 10:51:11;;;;;;;14.20;3.10;;;;;;;;;;7368867;19;20006;-73
2023/12/10 10:53:38;;;;;;;12.65;2.88;;;;;;;;;;7366185;19;20002;-72
2023/12/10 10:56:05;;;;;;;14.63;3.72;;;;;;;;;;7367190;19;20010;-74
2023/12/10 10:58:30;;;;;;;14.85;3.55;;;;;;;;;;7368509;19;20006;-74
2023/12/10 11:00:56;;;;;;;12.07;3.15;;;;;;;;;;7366674;19;20015;-74
2023/12/10 11:03:24;;;;;;;13.63;2.85;;;;;;;;;;7387561;19;20354;-73
2023/12/10 11:05:50;;;;;;;14.57;3.30;;;;;;;;;;7367021;19;20010;-73
2023/12/10 11:08:15;;;;;;;16.48;3.40;;;;;;;;;;7367321;19;20014;-73
2023/12/10 11:10:45;;;;;;;18.33;3.33;;;;;;;;;;7367839;19;20021;-73
2023/12/10 11:13:11;;;;;;;14.52;3.83;;;;;;;;;;7367476;19;20143;-72
2023/12/10 11:15:36;;;;;;;14.88;3.03;;;;;;;;;;7390215;19;20032;-74
2023/12/10 11:18:02;;;;;;;15.15;3.17;;;;;;;;;;7368060;19;20018;-73
2023/12/10 11:20:43;;;;;;;14.20;2.95;;;;;;;;;;7365286;19;20003;-74
2023/12/10 11:23:13;;;;;;;21.90;8.65;;;;;;;;;;7367067;19;20003;-73
2023/12/10 11:25:40;;;;;;;19.73;3.60;;;;;;;;;;7367517;19;20007;-73
2023/12/10 11:28:10;;;;;;;16.55;3.17;;;;;;;;;;7369833;19;20084;-73
2023/12/10 11:30:37;;;;;;;17.48;2.92;;;;;;;;;;7391758;19;20015;-73
2023/12/10 11:33:04;;;;;;;17.95;3.30;;;;;;;;;;7367367;19;20023;-74
2023/12/10 11:35:29;;;;;;;11.20;2.72;;;;;;;;;;7368369;19;20530;-73
2023/12/10 11:37:55;;;;;;;15.75;3.28;;;;;;;;;;7366182;19;20014;-74
2023/12/10 11:40:20;;;;;;;20.15;3.15;;;;;;;;;;7372332;19;20414;-74
2023/12/10 11:42:46;;;;;;;18.67;3.03;;;;;;;;;;7385717;19;20006;-73
2023/12/10 11:45:13;;;;;;;17.83;2.75;;;;;;;;;;7380936;19;20027;-74
2023/12/10 11:47:42;;;;;;;16.85;3.08;;;;;;;;;;7365949;19;20074;-73
2023/12/10 11:50:08;;;;;;;19.58;4.22;;;;;;;;;;7382285;19;20344;-72
2023/12/10 11:52:33;;;;;;;11.18;3.08;;;;;;;;;;7378443;19;20007;-73
2023/12/10 11:54:59;;;;;;;12.95;2.90;;;;;;;;;;7376240;19;20104;-74
2023/12/10 11:57:24;;;;;;;13.52;2.70;;;;;;;;;;7387766;19;20007;-72
2023/12/10 11:59:50;;;;;;;16.05;3.22;;;;;;;;;;7366047;19;20094;-72
2023/12/10 12:02:16;;;;;;;16.98;2.97;;;;;;;;;;7365842;19;20576;-73
2023/12/10 12:04:42;;;;;;;19.63;6.78;;;;;;;;;;7366537;19;20090;-72
2023/12/10 12:07:22;;;;;;;20.58;6.57;;;;;;;;;;7365418;19;20011;-74
2023/12/10 12:09:47;;;;;;;15.95;3.42;;;;;;;;;;7366670;19;20098;-73
2023/12/10 12:12:12;;;;;;;16.15;2.85;;;;;;;;;;7387634;19;20020;-73
2023/12/10 12:14:38;;;;;;;16.98;3.10;;;;;;;;;;7365955;19;20034;-73
2023/12/10 12:17:03;;;;;;;17.20;3.38;;;;;;;;;;7366125;19;20006;-73
2023/12/10 12:19:29;;;;;;;12.43;3.17;;;;;;;;;;7366108;19;19994;-73
2023/12/10 12:21:58;;;;;;;12.75;2.45;;;;;;;;;;7366010;19;20014;-73
2023/12/10 12:24:23;;;;;;;13.20;2.72;;;;;;;;;;7386531;19;20021;-73
2023/12/10 12:26:50;;;;;;;14.52;2.97;;;;;;;;;;7366120;19;20496;-73
2023/12/10 12:29:15;;;;;;;14.63;2.70;;;;;;;;;;7371054;19;20541;-74
2023/12/10 12:31:41;;;;;;;17.98;3.38;;;;;;;;;;7369774;19;20006;-74
2023/12/10 12:34:06;;;;;;;16.95;3.38;;;;;;;;;;7366674;19;20338;-74
2023/12/10 12:36:31;;;;;;;19.98;3.33;;;;;;;;;;7391035;19;20076;-74
2023/12/10 12:38:57;;;;;;;14.00;2.65;;;;;;;;;;7367509;19;20006;-73
2023/12/10 12:41:22;;;;;;;16.88;3.58;;;;;;;;;;7366447;19;20011;-73
2023/12/10 12:43:47;;;;;;;18.88;3.75;;;;;;;;;;7366323;19;20086;-73
2023/12/10 12:46:14;;;;;;;12.98;2.78;;;;;;;;;;7364831;19;20010;-74
2023/12/10 12:48:40;;;;;;;17.55;3.30;;;;;;;;;;7387015;19;20126;-75
2023/12/10 12:51:05;;;;;;;15.50;2.72;;;;;;;;;;7366027;19;20107;-73
2023/12/10 12:53:30;;;;;;;17.92;3.35;;;;;;;;;;7364873;19;20002;-74
2023/12/10 12:55:56;;;;;;;25.15;8.02;;;;;;;;;;7365302;19;20010;-74
2023/12/10 12:58:21;;;;;;;23.83;4.85;;;;;;;;;;7366626;19;20046;-74
2023/12/10 13:00:47;;;;;;;13.73;3.05;;;;;;;;;;7367673;19;20070;-72
2023/12/10 13:03:12;;;;;;;15.50;3.15;;;;;;;;;;7387797;19;20018;-74
2023/12/10 13:05:38;;;;;;;14.48;3.13;;;;;;;;;;7364616;19;20042;-73
2023/12/10 13:08:03;;;;;;;17.42;3.13;;;;;;;;;;7370972;19;20360;-73
2023/12/10 13:10:29;;;;;;;19.50;3.25;;;;;;;;;;7375031;19;20017;-73
2023/12/10 13:12:54;;;;;;;21.70;4.13;;;;;;;;;;7370971;19;20060;-74
2023/12/10 13:15:20;;;;;;;24.02;4.43;;;;;;;;;;7388174;19;20023;-73
2023/12/10 13:17:45;;;;;;;24.85;3.85;;;;;;;;;;7363516;19;20396;-75
2023/12/10 13:20:11;;;;;;;21.33;4.15;;;;;;;;;;7363713;19;20037;-74
2023/12/10 13:22:36;;;;;;;23.70;3.70;;;;;;;;;;7362938;19;20006;-74
2023/12/10 13:25:03;;;;;;;15.48;3.92;;;;;;;;;;7366609;19;20859;-74
2023/12/10 13:27:28;;;;;;;20.30;3.70;;;;;;;;;;7392734;19;20002;-75
2023/12/10 13:29:53;;;;;;;18.77;3.67;;;;;;;;;;7371461;19;20007;-73
2023/12/10 13:32:19;;;;;;;21.70;3.38;;;;;;;;;;7371749;19;20010;-73
2023/12/10 13:34:44;;;;;;;21.45;3.70;;;;;;;;;;7371570;19;20070;-75
2023/12/10 13:37:11;;;;;;;18.90;3.38;;;;;;;;;;7370514;19;20442;-73
2023/12/10 13:39:36;;;;;;;20.38;4.55;;;;;;;;;;7393422;19;20531;-74
2023/12/10 13:42:02;;;;;;;20.25;4.20;;;;;;;;;;7373013;19;20011;-73
2023/12/10 13:44:27;;;;;;;20.50;3.75;;;;;;;;;;7371136;19;20007;-74
2023/12/10 13:46:52;;;;;;;22.73;3.88;;;;;;;;;;7370804;19;20027;-74
2023/12/10 13:49:18;;;;;;;16.75;4.45;;;;;;;;;;7372643;19;20349;-72
2023/12/10 13:51:43;;;;;;;18.75;3.53;;;;;;;;;;7393423;19;20538;-74
2023/12/10 13:54:09;;;;;;;21.98;4.35;;;;;;;;;;7368103;19;20109;-74
2023/12/10 13:56:34;;;;;;;21.25;4.53;;;;;;;;;;7368920;19;20034;-73
2023/12/10 13:58:59;;;;;;;21.35;7.65;;;;;;;;;;7370735;19;20021;-73
2023/12/10 14:01:25;;;;;;;20.10;3.75;;;;;;;;;;7369048;19;20006;-74
2023/12/10 14:03:51;;;;;;;19.83;3.38;;;;;;;;;;7370130;19;20008;-73
2023/12/10 14:06:16;;;;;;;20.60;3.88;;;;;;;;;;7391738;19;20014;-73
2023/12/10 14:08:41;;;;;;;23.52;3.95;;;;;;;;;;7370307;19;20014;-73
2023/12/10 14:11:07;;;;;;;18.65;3.70;;;;;;;;;;7370043;19;20016;-74
2023/12/10 14:13:32;;;;;;;17.02;3.25;;;;;;;;;;7371740;19;19999;-75
2023/12/10 14:15:57;;;;;;;18.50;3.92;;;;;;;;;;7371849;19;20030;-75
2023/12/10 14:18:23;;;;;;;20.80;4.05;;;;;;;;;;7395152;19;20020;-74
2023/12/10 14:20:48;;;;;;;24.10;3.92;;;;;;;;;;7369264;19;20002;-74
2023/12/10 14:23:14;;;;;;;15.23;3.88;;;;;;;;;;7368521;19;20438;-73
2023/12/10 14:25:39;;;;;;;19.98;3.33;;;;;;;;;;7368690;19;20003;-74